Time;durP1;ratioP1;P1;durP2;ratioP2;P2;SDS_P1;SDS_P2;PMS_P1;PMS_P2;Temp;Humidity;BMP_temperature;BMP_pressure;BME280_temperature;BME280_humidity;BME280_pressure;Samples;Min_cycle;Max_cycle;Signal;HPM_P1;HPM_P2
2023/08/08 00:01:54;;;;;;;3.15;1.90;;;;;;;;;;4974435;28;20023;-73
2023/08/08 00:04:20;;;;;;;2.50;1.33;;;;;;;;;;4974196;28;20031;-74
2023/08/08 00:06:47;;;;;;;5.55;1.70;;;;;;;;;;4974231;28;20029;-74
2023/08/08 00:09:13;;;;;;;3.60;1.63;;;;;;;;;;4973866;28;20027;-74
2023/08/08 00:11:39;;;;;;;3.53;1.63;;;;;;;;;;4974107;28;20073;-74
2023/08/08 00:14:06;;;;;;;3.63;1.58;;;;;;;;;;4974150;28;20069;-74
2023/08/08 00:16:32;;;;;;;2.80;1.70;;;;;;;;;;4974161;28;20022;-74
2023/08/08 00:18:58;;;;;;;3.80;1.80;;;;;;;;;;4974494;28;20027;-74
2023/08/08 00:21:25;;;;;;;4.30;1.73;;;;;;;;;;4974128;28;20030;-74
2023/08/08 00:23:51;;;;;;;4.63;2.05;;;;;;;;;;4973740;28;20068;-74
2023/08/08 00:26:17;;;;;;;5.75;2.10;;;;;;;;;;4974222;28;20035;-73
2023/08/08 00:28:44;;;;;;;3.47;1.70;;;;;;;;;;4972934;28;20031;-74
2023/08/08 00:31:10;;;;;;;2.97;1.48;;;;;;;;;;4973756;28;20041;-74
2023/08/08 00:33:36;;;;;;;3.38;1.40;;;;;;;;;;4974039;28;20027;-74
2023/08/08 00:36:03;;;;;;;2.30;1.20;;;;;;;;;;4973942;28;20031;-74
2023/08/08 00:38:29;;;;;;;3.53;1.63;;;;;;;;;;4973363;28;20031;-74
2023/08/08 00:40:56;;;;;;;7.65;1.65;;;;;;;;;;4973820;28;20027;-73
2023/08/08 00:43:23;;;;;;;2.55;1.60;;;;;;;;;;4974088;28;20037;-73
2023/08/08 00:45:49;;;;;;;4.30;1.60;;;;;;;;;;4973791;28;20021;-74
2023/08/08 00:48:15;;;;;;;4.40;1.67;;;;;;;;;;4974086;28;20035;-73
2023/08/08 00:50:44;;;;;;;4.07;1.80;;;;;;;;;;4973688;28;20041;-73
2023/08/08 00:53:10;;;;;;;4.22;1.60;;;;;;;;;;4973305;28;20031;-74
2023/08/08 00:55:37;;;;;;;2.67;1.42;;;;;;;;;;4972789;28;20027;-73
2023/08/08 00:58:04;;;;;;;3.60;1.60;;;;;;;;;;4973740;28;20023;-73
2023/08/08 01:00:30;;;;;;;4.35;1.80;;;;;;;;;;4973632;28;20037;-74
2023/08/08 01:02:57;;;;;;;5.32;1.70;;;;;;;;;;4973553;28;20029;-74
2023/08/08 01:05:23;;;;;;;3.88;1.58;;;;;;;;;;4973416;28;20506;-74
2023/08/08 01:08:02;;;;;;;3.05;1.65;;;;;;;;;;4973535;28;20073;-74
2023/08/08 01:10:32;;;;;;;3.45;1.60;;;;;;;;;;4973620;28;20039;-73
2023/08/08 01:13:01;;;;;;;4.28;1.50;;;;;;;;;;4973301;28;20027;-74
2023/08/08 01:15:27;;;;;;;4.35;1.40;;;;;;;;;;4973792;28;20039;-74
2023/08/08 01:17:55;;;;;;;5.85;1.67;;;;;;;;;;4972063;28;20021;-73
2023/08/08 01:20:22;;;;;;;3.40;1.67;;;;;;;;;;4973580;28;20400;-73
2023/08/08 01:22:49;;;;;;;4.28;1.60;;;;;;;;;;4973066;28;20023;-74
2023/08/08 01:25:15;;;;;;;4.28;1.48;;;;;;;;;;4973466;28;20030;-73
2023/08/08 01:27:42;;;;;;;4.22;1.65;;;;;;;;;;4973621;28;20031;-73
2023/08/08 01:30:08;;;;;;;4.60;1.98;;;;;;;;;;4973450;28;20490;-74
2023/08/08 01:32:35;;;;;;;6.40;1.92;;;;;;;;;;4973158;28;20442;-74
2023/08/08 01:35:01;;;;;;;3.35;1.58;;;;;;;;;;4972619;28;20034;-74
2023/08/08 01:37:31;;;;;;;2.65;1.65;;;;;;;;;;4973109;28;20023;-73
2023/08/08 01:39:59;;;;;;;3.97;1.45;;;;;;;;;;4973325;28;20038;-74
2023/08/08 01:42:26;;;;;;;3.75;1.60;;;;;;;;;;4973491;28;20019;-74
2023/08/08 01:44:53;;;;;;;2.70;1.50;;;;;;;;;;4972382;28;20031;-74
2023/08/08 01:47:20;;;;;;;4.75;1.70;;;;;;;;;;4973322;28;20014;-74
2023/08/08 01:49:46;;;;;;;2.05;1.50;;;;;;;;;;4972689;28;20046;-73
2023/08/08 01:52:13;;;;;;;4.22;1.75;;;;;;;;;;4976745;28;20022;-74
2023/08/08 01:54:39;;;;;;;3.15;1.52;;;;;;;;;;4976818;28;20023;-74
2023/08/08 01:57:05;;;;;;;3.45;1.70;;;;;;;;;;4976635;28;20479;-73
2023/08/08 01:59:32;;;;;;;4.75;1.52;;;;;;;;;;4976726;28;20035;-74
2023/08/08 02:01:58;;;;;;;3.63;1.38;;;;;;;;;;4976524;28;20019;-73
2023/08/08 02:04:24;;;;;;;2.60;1.50;;;;;;;;;;4976100;28;20475;-74
2023/08/08 02:06:50;;;;;;;3.88;1.38;;;;;;;;;;4975405;28;20027;-73
2023/08/08 02:09:17;;;;;;;1.88;1.52;;;;;;;;;;4975263;28;20033;-73
2023/08/08 02:11:43;;;;;;;3.40;1.48;;;;;;;;;;4976702;28;20049;-74
2023/08/08 02:14:09;;;;;;;7.35;2.00;;;;;;;;;;4976149;28;20050;-73
2023/08/08 02:16:36;;;;;;;4.90;1.38;;;;;;;;;;4976086;28;20029;-74
2023/08/08 02:19:02;;;;;;;2.53;1.50;;;;;;;;;;4976155;28;20035;-74
2023/08/08 02:21:28;;;;;;;2.83;1.50;;;;;;;;;;4976720;28;20030;-73
2023/08/08 02:23:55;;;;;;;3.97;1.70;;;;;;;;;;4976149;28;20077;-74
2023/08/08 02:26:21;;;;;;;4.80;1.90;;;;;;;;;;4976293;28;20033;-73
2023/08/08 02:28:47;;;;;;;2.38;1.60;;;;;;;;;;4976349;28;20045;-73
2023/08/08 02:31:20;;;;;;;2.17;1.27;;;;;;;;;;4976030;28;20093;-74
2023/08/08 02:33:48;;;;;;;3.47;1.40;;;;;;;;;;4975702;28;20023;-73
2023/08/08 02:36:14;;;;;;;3.03;1.30;;;;;;;;;;4975208;28;20039;-74
2023/08/08 02:38:40;;;;;;;2.22;1.60;;;;;;;;;;4975963;28;20031;-73
2023/08/08 02:41:07;;;;;;;3.25;1.50;;;;;;;;;;4975804;28;20057;-74
2023/08/08 02:43:33;;;;;;;4.53;1.30;;;;;;;;;;4976029;28;20076;-74
2023/08/08 02:45:59;;;;;;;2.35;1.35;;;;;;;;;;4976173;28;20031;-73
2023/08/08 02:48:25;;;;;;;4.25;1.50;;;;;;;;;;4975461;28;20023;-74
2023/08/08 02:50:52;;;;;;;3.20;1.80;;;;;;;;;;4975588;28;20027;-76
2023/08/08 02:53:18;;;;;;;2.92;1.40;;;;;;;;;;4975776;28;20031;-73
2023/08/08 02:55:44;;;;;;;2.15;1.50;;;;;;;;;;4975968;28;20109;-73
2023/08/08 02:58:11;;;;;;;2.33;1.45;;;;;;;;;;4958818;28;20023;-73
2023/08/08 03:00:37;;;;;;;2.83;1.70;;;;;;;;;;4974402;28;20487;-73
2023/08/08 03:03:03;;;;;;;4.65;1.70;;;;;;;;;;4974573;28;20482;-73
2023/08/08 03:05:29;;;;;;;3.45;1.77;;;;;;;;;;4975318;28;20383;-73
2023/08/08 03:07:56;;;;;;;1.63;1.30;;;;;;;;;;4975780;28;20029;-74
2023/08/08 03:10:22;;;;;;;3.38;1.60;;;;;;;;;;4974103;28;20038;-73
2023/08/08 03:12:48;;;;;;;3.47;1.77;;;;;;;;;;4975227;28;20052;-73
2023/08/08 03:15:15;;;;;;;2.03;1.50;;;;;;;;;;4975564;28;20038;-73
2023/08/08 03:17:41;;;;;;;3.80;1.67;;;;;;;;;;4974675;28;20030;-74
2023/08/08 03:20:08;;;;;;;3.38;1.50;;;;;;;;;;4974105;28;20513;-73
2023/08/08 03:22:34;;;;;;;4.47;1.50;;;;;;;;;;4975174;28;20030;-73
2023/08/08 03:25:01;;;;;;;2.15;1.55;;;;;;;;;;4975248;28;20023;-76
2023/08/08 03:27:27;;;;;;;4.57;1.38;;;;;;;;;;4975303;28;20025;-75
2023/08/08 03:29:53;;;;;;;3.72;1.38;;;;;;;;;;4975035;28;20030;-75
2023/08/08 03:32:20;;;;;;;1.95;1.52;;;;;;;;;;4974810;28;20041;-75
2023/08/08 03:34:46;;;;;;;3.25;1.40;;;;;;;;;;4975016;28;20026;-75
2023/08/08 03:37:12;;;;;;;3.03;1.50;;;;;;;;;;4975168;28;20030;-75
2023/08/08 03:39:39;;;;;;;2.40;1.42;;;;;;;;;;4974880;28;20031;-75
2023/08/08 03:42:05;;;;;;;2.42;1.40;;;;;;;;;;4973714;28;20025;-74
2023/08/08 03:44:31;;;;;;;2.40;1.20;;;;;;;;;;4974901;28;20022;-75
2023/08/08 03:46:58;;;;;;;2.97;1.27;;;;;;;;;;4974449;28;20450;-75
2023/08/08 03:49:24;;;;;;;4.65;1.50;;;;;;;;;;4973588;28;20037;-75
2023/08/08 03:51:51;;;;;;;1.52;1.15;;;;;;;;;;4957167;28;20061;-75
2023/08/08 03:54:17;;;;;;;4.85;1.70;;;;;;;;;;4974611;28;20019;-75
2023/08/08 03:56:43;;;;;;;3.33;1.15;;;;;;;;;;4974547;28;20455;-75
2023/08/08 03:59:10;;;;;;;2.28;1.35;;;;;;;;;;4974747;28;20035;-75
2023/08/08 04:01:37;;;;;;;3.22;1.42;;;;;;;;;;4974228;28;20026;-75
2023/08/08 04:04:05;;;;;;;5.40;1.70;;;;;;;;;;4974670;28;20083;-74
2023/08/08 04:06:31;;;;;;;4.00;1.33;;;;;;;;;;4974536;28;20027;-75
2023/08/08 04:08:58;;;;;;;3.65;1.48;;;;;;;;;;4974382;28;20030;-75
2023/08/08 04:11:24;;;;;;;4.32;1.40;;;;;;;;;;4974479;28;20027;-75
2023/08/08 04:13:50;;;;;;;2.53;1.27;;;;;;;;;;4973141;28;20046;-75
2023/08/08 04:16:16;;;;;;;2.25;1.40;;;;;;;;;;4973656;28;20039;-75
2023/08/08 04:18:43;;;;;;;2.53;1.52;;;;;;;;;;4974503;28;20029;-74
2023/08/08 04:21:09;;;;;;;6.32;1.50;;;;;;;;;;4974096;28;20023;-75
2023/08/08 04:23:35;;;;;;;3.95;1.35;;;;;;;;;;4974117;28;20031;-75
2023/08/08 04:26:02;;;;;;;4.28;1.73;;;;;;;;;;4974030;28;20373;-75
2023/08/08 04:28:28;;;;;;;7.53;1.33;;;;;;;;;;4972979;28;20033;-75
2023/08/08 04:30:54;;;;;;;3.08;1.33;;;;;;;;;;4973679;28;20033;-75
2023/08/08 04:33:21;;;;;;;1.58;1.33;;;;;;;;;;4974027;28;20027;-75
2023/08/08 04:35:47;;;;;;;3.55;1.58;;;;;;;;;;4973880;28;20019;-75
2023/08/08 04:38:15;;;;;;;2.78;1.42;;;;;;;;;;4974057;28;20438;-76
2023/08/08 04:40:41;;;;;;;3.17;1.80;;;;;;;;;;4973753;28;20029;-75
2023/08/08 04:43:08;;;;;;;2.33;1.30;;;;;;;;;;4973886;28;20051;-75
2023/08/08 04:45:34;;;;;;;3.45;1.45;;;;;;;;;;4973584;28;20023;-75
2023/08/08 04:48:00;;;;;;;4.60;1.33;;;;;;;;;;4973770;28;20037;-74
2023/08/08 04:50:28;;;;;;;3.28;1.55;;;;;;;;;;4973699;28;20454;-74
2023/08/08 04:52:54;;;;;;;4.00;1.70;;;;;;;;;;4973970;28;20026;-75
2023/08/08 04:55:20;;;;;;;2.55;1.70;;;;;;;;;;4973735;28;20027;-74
2023/08/08 04:57:47;;;;;;;3.65;1.52;;;;;;;;;;4974092;28;20031;-75
2023/08/08 05:00:14;;;;;;;2.60;1.50;;;;;;;;;;4973648;28;20029;-75
2023/08/08 05:02:41;;;;;;;2.83;1.30;;;;;;;;;;4973637;28;20029;-75
2023/08/08 05:05:07;;;;;;;3.42;1.60;;;;;;;;;;4973527;28;20495;-75
2023/08/08 05:07:36;;;;;;;2.15;1.42;;;;;;;;;;4973764;28;20019;-75
2023/08/08 05:10:02;;;;;;;2.33;1.27;;;;;;;;;;4973609;28;20022;-75
2023/08/08 05:12:28;;;;;;;3.97;1.33;;;;;;;;;;4973745;28;20027;-75
2023/08/08 05:14:55;;;;;;;2.85;1.50;;;;;;;;;;4973022;28;20047;-74
2023/08/08 05:17:21;;;;;;;4.53;1.65;;;;;;;;;;4973007;28;20026;-74
2023/08/08 05:19:47;;;;;;;3.72;1.48;;;;;;;;;;4973804;28;20035;-75
2023/08/08 05:22:14;;;;;;;3.50;1.50;;;;;;;;;;4973468;28;20026;-75
2023/08/08 05:24:40;;;;;;;3.33;1.30;;;;;;;;;;4973463;28;20053;-75
2023/08/08 05:27:06;;;;;;;10.38;1.95;;;;;;;;;;4977319;28;20035;-75
2023/08/08 05:29:34;;;;;;;17.67;1.90;;;;;;;;;;4976787;28;20402;-75
2023/08/08 05:32:00;;;;;;;19.42;2.83;;;;;;;;;;4977162;28;20034;-74
2023/08/08 05:34:27;;;;;;;29.98;3.03;;;;;;;;;;4977250;28;20030;-74
2023/08/08 05:36:53;;;;;;;5.88;1.70;;;;;;;;;;4977242;28;20033;-75
2023/08/08 05:39:19;;;;;;;6.55;1.75;;;;;;;;;;4975954;28;20491;-75
2023/08/08 05:41:45;;;;;;;7.10;1.88;;;;;;;;;;4977189;28;20037;-75
2023/08/08 05:44:12;;;;;;;2.90;1.35;;;;;;;;;;4977059;28;20027;-75
2023/08/08 05:46:38;;;;;;;3.33;1.40;;;;;;;;;;4976808;28;20030;-75
2023/08/08 05:49:04;;;;;;;2.37;1.40;;;;;;;;;;4976835;28;20027;-75
2023/08/08 05:51:31;;;;;;;3.70;1.30;;;;;;;;;;4976992;28;20034;-75
2023/08/08 05:53:57;;;;;;;3.80;1.70;;;;;;;;;;4976516;28;20379;-74
2023/08/08 05:56:23;;;;;;;2.17;1.40;;;;;;;;;;4976815;28;20031;-75
2023/08/08 05:58:50;;;;;;;3.20;1.65;;;;;;;;;;4977018;28;20106;-75
2023/08/08 06:01:16;;;;;;;3.13;1.40;;;;;;;;;;4976623;28;20053;-75
2023/08/08 06:03:42;;;;;;;25.83;2.58;;;;;;;;;;4976976;28;20034;-75
2023/08/08 06:06:09;;;;;;;32.47;3.22;;;;;;;;;;4976548;28;20039;-75
2023/08/08 06:08:35;;;;;;;24.95;2.92;;;;;;;;;;4976519;28;20019;-75
2023/08/08 06:11:02;;;;;;;6.88;1.52;;;;;;;;;;4976145;28;20047;-75
2023/08/08 06:13:28;;;;;;;6.22;1.67;;;;;;;;;;4976382;28;20407;-75
2023/08/08 06:15:55;;;;;;;1.88;1.10;;;;;;;;;;4976394;28;20039;-75
2023/08/08 06:18:21;;;;;;;1.73;1.30;;;;;;;;;;4970729;28;20073;-73
2023/08/08 06:20:47;;;;;;;1.80;1.23;;;;;;;;;;4975853;28;20403;-73
2023/08/08 06:23:15;;;;;;;21.98;2.67;;;;;;;;;;4976005;28;20019;-73
2023/08/08 06:25:41;;;;;;;17.33;1.98;;;;;;;;;;4975839;28;20025;-72
2023/08/08 06:28:07;;;;;;;7.80;2.00;;;;;;;;;;4975823;28;20023;-72
2023/08/08 06:30:36;;;;;;;9.85;2.28;;;;;;;;;;4975628;28;20038;-72
2023/08/08 06:33:03;;;;;;;8.55;1.63;;;;;;;;;;4976125;28;20023;-72
2023/08/08 06:35:29;;;;;;;12.38;1.40;;;;;;;;;;4975872;28;20035;-73
2023/08/08 06:37:55;;;;;;;2.33;1.33;;;;;;;;;;4974589;28;20023;-73
2023/08/08 06:40:23;;;;;;;2.17;1.30;;;;;;;;;;4974515;28;20029;-73
2023/08/08 06:42:49;;;;;;;4.38;1.58;;;;;;;;;;4975347;28;20029;-73
2023/08/08 06:45:16;;;;;;;4.80;1.70;;;;;;;;;;4975179;28;20407;-74
2023/08/08 06:47:42;;;;;;;4.18;1.52;;;;;;;;;;4975521;28;20026;-73
2023/08/08 06:50:09;;;;;;;3.97;1.20;;;;;;;;;;4969944;28;20023;-73
2023/08/08 06:52:35;;;;;;;4.50;1.40;;;;;;;;;;4968002;28;20049;-73
2023/08/08 06:55:01;;;;;;;3.47;1.35;;;;;;;;;;4962189;28;20034;-73
2023/08/08 06:57:28;;;;;;;4.65;1.38;;;;;;;;;;4971092;28;20387;-72
2023/08/08 06:59:54;;;;;;;6.45;1.30;;;;;;;;;;4974759;28;20029;-73
2023/08/08 07:02:21;;;;;;;3.60;1.40;;;;;;;;;;4972915;28;20025;-73
2023/08/08 07:04:47;;;;;;;2.13;1.50;;;;;;;;;;4974239;28;20023;-72
2023/08/08 07:07:13;;;;;;;6.93;1.58;;;;;;;;;;4974197;28;20391;-71
2023/08/08 07:09:39;;;;;;;6.60;1.67;;;;;;;;;;4974337;28;20035;-72
2023/08/08 07:12:06;;;;;;;1.77;1.42;;;;;;;;;;4974107;28;20025;-70
2023/08/08 07:14:32;;;;;;;3.15;1.50;;;;;;;;;;4973766;28;20051;-71
2023/08/08 07:16:59;;;;;;;4.63;1.60;;;;;;;;;;4973868;28;20027;-71
2023/08/08 07:19:25;;;;;;;2.20;1.40;;;;;;;;;;4974165;28;20031;-71
2023/08/08 07:21:51;;;;;;;2.00;1.40;;;;;;;;;;4954476;28;20030;-71
2023/08/08 07:24:18;;;;;;;2.92;1.52;;;;;;;;;;4954615;28;20082;-71
2023/08/08 07:26:44;;;;;;;3.88;1.83;;;;;;;;;;4960136;28;20023;-71
2023/08/08 07:29:11;;;;;;;2.40;1.63;;;;;;;;;;4966019;28;20085;-71
2023/08/08 07:31:37;;;;;;;2.20;1.48;;;;;;;;;;4953086;28;20035;-71
2023/08/08 07:34:03;;;;;;;4.72;1.55;;;;;;;;;;4970035;28;20522;-71
2023/08/08 07:36:30;;;;;;;4.40;1.70;;;;;;;;;;4974278;28;20098;-71
2023/08/08 07:38:59;;;;;;;3.95;1.63;;;;;;;;;;4969828;28;20027;-71
2023/08/08 07:41:26;;;;;;;7.07;1.33;;;;;;;;;;4954583;28;20022;-71
2023/08/08 07:43:53;;;;;;;2.65;1.60;;;;;;;;;;4954290;28;20035;-71
2023/08/08 07:46:19;;;;;;;9.55;1.80;;;;;;;;;;4957139;28;20050;-71
2023/08/08 07:48:45;;;;;;;8.75;1.23;;;;;;;;;;4954945;28;20039;-71
2023/08/08 07:51:11;;;;;;;2.08;1.30;;;;;;;;;;4973211;28;20403;-71
2023/08/08 07:53:38;;;;;;;2.20;1.45;;;;;;;;;;4973527;28;20018;-71
2023/08/08 07:56:04;;;;;;;1.90;1.42;;;;;;;;;;4971380;28;20034;-71
2023/08/08 07:58:32;;;;;;;2.40;1.33;;;;;;;;;;4973540;28;20049;-71
2023/08/08 08:00:59;;;;;;;2.50;1.27;;;;;;;;;;4973587;28;20035;-71
2023/08/08 08:03:27;;;;;;;2.25;1.20;;;;;;;;;;4973168;28;20527;-71
2023/08/08 08:05:53;;;;;;;3.22;1.48;;;;;;;;;;4973391;28;20023;-71
2023/08/08 08:08:21;;;;;;;3.20;1.42;;;;;;;;;;4972950;28;20502;-71
2023/08/08 08:10:48;;;;;;;4.05;1.40;;;;;;;;;;4971925;28;20031;-71
2023/08/08 08:13:14;;;;;;;3.10;1.40;;;;;;;;;;4972883;28;20031;-71
2023/08/08 08:15:41;;;;;;;3.38;1.52;;;;;;;;;;4972814;28;20034;-71
2023/08/08 08:18:07;;;;;;;1.55;1.25;;;;;;;;;;4978562;28;20037;-70
2023/08/08 08:20:34;;;;;;;6.55;1.85;;;;;;;;;;4973044;28;20026;-71
2023/08/08 08:23:00;;;;;;;2.55;1.30;;;;;;;;;;4972749;28;20015;-71
2023/08/08 08:25:26;;;;;;;4.13;1.20;;;;;;;;;;4972857;28;20027;-70
2023/08/08 08:27:52;;;;;;;5.28;1.40;;;;;;;;;;4972771;28;20027;-71
2023/08/08 08:30:19;;;;;;;5.22;1.33;;;;;;;;;;4972796;28;20033;-70
2023/08/08 08:32:45;;;;;;;1.33;1.00;;;;;;;;;;4972124;28;20021;-71
2023/08/08 08:35:13;;;;;;;4.50;1.20;;;;;;;;;;4972410;28;20458;-71
2023/08/08 08:37:39;;;;;;;3.40;1.20;;;;;;;;;;4972812;28;20015;-71
2023/08/08 08:40:06;;;;;;;10.30;1.40;;;;;;;;;;4972697;28;20041;-70
2023/08/08 08:42:33;;;;;;;8.57;1.10;;;;;;;;;;4968394;28;20027;-70
2023/08/08 08:44:59;;;;;;;5.13;1.15;;;;;;;;;;4972923;28;20018;-71
2023/08/08 08:47:26;;;;;;;8.75;1.30;;;;;;;;;;4966169;28;20035;-70
2023/08/08 08:49:53;;;;;;;1.45;1.25;;;;;;;;;;4972326;28;20035;-71
2023/08/08 08:52:19;;;;;;;2.92;1.20;;;;;;;;;;4972446;28;20476;-71
2023/08/08 08:54:46;;;;;;;6.25;3.10;;;;;;;;;;4972570;28;20035;-71
2023/08/08 08:57:12;;;;;;;1.35;1.23;;;;;;;;;;4972967;28;20050;-71
2023/08/08 08:59:38;;;;;;;1.90;1.30;;;;;;;;;;4972643;28;20027;-71
2023/08/08 09:02:05;;;;;;;5.20;2.75;;;;;;;;;;4972578;28;20023;-69
2023/08/08 09:04:32;;;;;;;1.63;1.42;;;;;;;;;;4972763;28;20030;-69
2023/08/08 09:06:58;;;;;;;2.03;1.38;;;;;;;;;;4972372;28;20399;-68
2023/08/08 09:09:25;;;;;;;1.70;1.30;;;;;;;;;;4972676;28;20049;-69
2023/08/08 09:11:55;;;;;;;2.70;1.40;;;;;;;;;;4971095;28;20040;-70
2023/08/08 09:14:23;;;;;;;1.73;1.23;;;;;;;;;;4972173;28;20529;-70
2023/08/08 09:16:51;;;;;;;2.38;1.35;;;;;;;;;;4971407;28;20395;-69
2023/08/08 09:19:17;;;;;;;2.28;1.20;;;;;;;;;;4972164;28;20422;-69
2023/08/08 09:21:44;;;;;;;1.55;1.45;;;;;;;;;;4969168;28;20500;-70
2023/08/08 09:24:10;;;;;;;1.63;1.50;;;;;;;;;;4968839;28;20041;-69
2023/08/08 09:26:37;;;;;;;1.35;1.20;;;;;;;;;;4964960;28;20377;-69
2023/08/08 09:29:04;;;;;;;1.55;1.45;;;;;;;;;;4972248;28;20490;-70
2023/08/08 09:31:30;;;;;;;2.17;1.42;;;;;;;;;;4971373;28;20053;-70
2023/08/08 09:34:00;;;;;;;1.95;1.65;;;;;;;;;;4971884;28;20027;-71
2023/08/08 09:36:27;;;;;;;1.90;1.80;;;;;;;;;;4972233;28;20041;-70
2023/08/08 09:38:54;;;;;;;6.78;1.52;;;;;;;;;;4969803;28;20502;-71
2023/08/08 09:41:21;;;;;;;3.55;2.33;;;;;;;;;;4971961;28;20030;-70
2023/08/08 09:43:51;;;;;;;2.00;1.80;;;;;;;;;;4972445;28;20034;-70
2023/08/08 09:46:21;;;;;;;1.85;1.52;;;;;;;;;;4970297;28;20031;-70
2023/08/08 09:48:47;;;;;;;2.10;1.60;;;;;;;;;;4971701;28;20041;-70
2023/08/08 09:51:14;;;;;;;2.10;1.77;;;;;;;;;;4971979;28;20046;-70
2023/08/08 09:53:41;;;;;;;2.75;1.45;;;;;;;;;;4969946;28;20387;-70
2023/08/08 09:56:08;;;;;;;3.72;1.40;;;;;;;;;;4972387;28;20023;-70
2023/08/08 09:58:34;;;;;;;1.70;1.60;;;;;;;;;;4963599;28;20018;-71
2023/08/08 10:01:01;;;;;;;3.30;1.38;;;;;;;;;;4972315;28;20031;-70
2023/08/08 10:03:28;;;;;;;2.17;1.73;;;;;;;;;;4968676;28;20395;-70
2023/08/08 10:05:54;;;;;;;4.35;1.10;;;;;;;;;;4971457;28;20038;-71
2023/08/08 10:08:21;;;;;;;4.10;1.30;;;;;;;;;;4965468;28;20030;-71
2023/08/08 10:10:49;;;;;;;1.90;1.38;;;;;;;;;;4951737;28;20043;-70
2023/08/08 10:13:22;;;;;;;2.97;1.25;;;;;;;;;;4962798;28;20049;-70
2023/08/08 10:15:49;;;;;;;3.08;1.50;;;;;;;;;;4966913;28;20418;-71
2023/08/08 10:18:16;;;;;;;1.85;1.40;;;;;;;;;;4974986;28;20022;-70
2023/08/08 10:20:47;;;;;;;1.50;1.30;;;;;;;;;;4971049;28;20033;-70
2023/08/08 10:23:17;;;;;;;1.45;1.30;;;;;;;;;;4966743;28;20031;-71
2023/08/08 10:25:51;;;;;;;3.88;1.60;;;;;;;;;;4959014;28;20027;-70
2023/08/08 10:28:19;;;;;;;1.40;1.30;;;;;;;;;;4974120;28;20435;-71
2023/08/08 10:30:46;;;;;;;2.70;1.30;;;;;;;;;;4975090;28;20042;-70
2023/08/08 10:33:23;;;;;;;2.58;1.35;;;;;;;;;;4975162;28;20027;-70
2023/08/08 10:36:03;;;;;;;1.65;1.55;;;;;;;;;;4975526;28;20030;-70
2023/08/08 10:38:53;;;;;;;2.00;1.67;;;;;;;;;;4975296;28;20049;-70
2023/08/08 10:41:20;;;;;;;4.18;1.65;;;;;;;;;;4975618;28;20025;-71
2023/08/08 10:43:51;;;;;;;2.20;2.00;;;;;;;;;;4975395;28;20387;-70
2023/08/08 10:46:30;;;;;;;2.35;2.15;;;;;;;;;;4975127;28;20015;-70
2023/08/08 10:48:59;;;;;;;2.55;2.22;;;;;;;;;;4975324;28;20023;-70
2023/08/08 10:51:42;;;;;;;3.28;2.50;;;;;;;;;;4974953;28;20049;-70
2023/08/08 10:54:17;;;;;;;2.65;2.20;;;;;;;;;;4975221;28;20102;-71
2023/08/08 10:56:51;;;;;;;2.65;2.08;;;;;;;;;;4973722;28;20492;-69
2023/08/08 10:59:36;;;;;;;2.25;2.05;;;;;;;;;;4975005;28;20484;-69
2023/08/08 11:02:02;;;;;;;2.50;2.30;;;;;;;;;;4971305;28;20034;-70
2023/08/08 11:04:30;;;;;;;2.55;2.35;;;;;;;;;;4955958;29;20027;-70
2023/08/08 11:06:56;;;;;;;2.65;2.45;;;;;;;;;;4961746;28;20019;-70
2023/08/08 11:09:23;;;;;;;3.10;2.80;;;;;;;;;;4954220;29;20390;-70
2023/08/08 11:11:50;;;;;;;2.78;2.58;;;;;;;;;;4955303;28;20031;-70
2023/08/08 11:14:17;;;;;;;3.55;2.80;;;;;;;;;;4955202;29;20047;-70
2023/08/08 11:16:44;;;;;;;2.92;2.63;;;;;;;;;;4967804;28;20030;-70
2023/08/08 11:19:12;;;;;;;2.85;2.65;;;;;;;;;;4975193;28;20369;-70
2023/08/08 11:21:43;;;;;;;4.85;2.88;;;;;;;;;;4974076;28;20026;-70
2023/08/08 11:24:10;;;;;;;2.63;2.42;;;;;;;;;;4962718;28;20034;-70
2023/08/08 11:26:37;;;;;;;3.63;2.65;;;;;;;;;;4955171;29;20023;-70
2023/08/08 11:29:08;;;;;;;3.55;3.25;;;;;;;;;;4955132;28;20030;-70
2023/08/08 11:31:35;;;;;;;3.25;2.97;;;;;;;;;;4954768;29;20035;-70
2023/08/08 11:34:01;;;;;;;2.95;2.65;;;;;;;;;;4955312;29;20030;-70
2023/08/08 11:36:32;;;;;;;2.60;2.40;;;;;;;;;;4959012;28;20035;-71
2023/08/08 11:39:00;;;;;;;5.55;2.65;;;;;;;;;;4973369;28;20100;-71
2023/08/08 11:41:27;;;;;;;2.78;2.58;;;;;;;;;;4974089;28;20025;-70
2023/08/08 11:43:53;;;;;;;2.80;2.60;;;;;;;;;;4973540;28;20025;-70
2023/08/08 11:46:23;;;;;;;2.00;1.90;;;;;;;;;;4973827;28;20034;-70
2023/08/08 11:48:49;;;;;;;2.15;1.95;;;;;;;;;;4974187;28;20015;-71
2023/08/08 11:51:17;;;;;;;2.42;2.22;;;;;;;;;;4973667;28;20043;-71
2023/08/08 11:53:53;;;;;;;2.88;2.03;;;;;;;;;;4974004;28;20498;-71
2023/08/08 11:56:20;;;;;;;2.95;2.13;;;;;;;;;;4971735;28;20399;-70
2023/08/08 11:58:47;;;;;;;2.83;2.20;;;;;;;;;;4972605;28;20474;-70
2023/08/08 12:01:14;;;;;;;3.70;1.90;;;;;;;;;;4973637;28;20035;-69
2023/08/08 12:03:41;;;;;;;3.22;2.28;;;;;;;;;;4973610;28;20019;-69
2023/08/08 12:06:14;;;;;;;2.30;2.10;;;;;;;;;;4973275;28;20450;-70
2023/08/08 12:08:42;;;;;;;2.97;2.65;;;;;;;;;;4973288;28;20029;-70
2023/08/08 12:11:08;;;;;;;3.42;2.38;;;;;;;;;;4973012;28;20057;-69
2023/08/08 12:13:39;;;;;;;2.70;2.50;;;;;;;;;;4972954;28;20053;-70
2023/08/08 12:16:06;;;;;;;2.72;2.40;;;;;;;;;;4972697;28;20611;-69
2023/08/08 12:18:33;;;;;;;2.40;2.17;;;;;;;;;;4973086;28;20019;-70
2023/08/08 12:20:59;;;;;;;2.58;2.38;;;;;;;;;;4971117;28;20035;-68
2023/08/08 12:23:27;;;;;;;2.33;2.13;;;;;;;;;;4972827;28;20031;-69
2023/08/08 12:25:53;;;;;;;2.92;2.50;;;;;;;;;;4972603;28;20019;-69
2023/08/08 12:28:20;;;;;;;2.40;2.20;;;;;;;;;;4972710;28;20045;-68
2023/08/08 12:30:46;;;;;;;2.38;2.20;;;;;;;;;;4972660;28;20553;-70
2023/08/08 12:33:12;;;;;;;2.65;2.45;;;;;;;;;;4973227;28;20092;-70
2023/08/08 12:35:39;;;;;;;2.88;2.40;;;;;;;;;;4972141;28;20018;-69
2023/08/08 12:38:05;;;;;;;3.00;2.70;;;;;;;;;;4961216;28;20019;-67
2023/08/08 12:40:33;;;;;;;2.40;2.10;;;;;;;;;;4954464;28;20093;-70
2023/08/08 12:42:59;;;;;;;2.70;2.50;;;;;;;;;;4972773;28;20073;-69
2023/08/08 12:45:26;;;;;;;2.33;2.10;;;;;;;;;;4972933;28;20037;-69
2023/08/08 12:47:52;;;;;;;2.47;1.92;;;;;;;;;;4971809;28;20031;-68
2023/08/08 12:50:18;;;;;;;4.85;1.98;;;;;;;;;;4970764;28;20031;-70
2023/08/08 12:52:45;;;;;;;2.25;2.05;;;;;;;;;;4972736;28;20039;-69
2023/08/08 12:55:11;;;;;;;2.80;2.15;;;;;;;;;;4971121;28;20019;-69
2023/08/08 12:57:38;;;;;;;4.68;2.05;;;;;;;;;;4965084;28;20097;-68
2023/08/08 13:00:05;;;;;;;4.03;2.03;;;;;;;;;;4953638;29;20394;-69
2023/08/08 13:02:33;;;;;;;1.88;1.77;;;;;;;;;;4953535;28;20030;-68
2023/08/08 13:04:59;;;;;;;2.47;2.13;;;;;;;;;;4955784;28;20070;-70
2023/08/08 13:07:25;;;;;;;2.72;2.10;;;;;;;;;;4953516;29;20027;-69
2023/08/08 13:09:52;;;;;;;3.13;2.08;;;;;;;;;;4953365;29;20396;-68
2023/08/08 13:12:18;;;;;;;5.70;1.90;;;;;;;;;;4953399;29;20033;-69
2023/08/08 13:14:44;;;;;;;4.32;2.08;;;;;;;;;;4952002;29;20407;-69
2023/08/08 13:17:11;;;;;;;2.63;2.08;;;;;;;;;;4963286;28;20035;-69
2023/08/08 13:19:37;;;;;;;2.60;2.10;;;;;;;;;;4972876;28;20025;-69
2023/08/08 13:22:03;;;;;;;3.20;2.33;;;;;;;;;;4972545;28;20033;-69
2023/08/08 13:24:30;;;;;;;2.00;1.90;;;;;;;;;;4972887;28;20018;-68
2023/08/08 13:26:56;;;;;;;4.35;2.50;;;;;;;;;;4972740;28;20033;-69
2023/08/08 13:29:22;;;;;;;2.40;2.15;;;;;;;;;;4972565;28;20832;-69
2023/08/08 13:31:49;;;;;;;2.60;2.25;;;;;;;;;;4972283;28;20089;-70
2023/08/08 13:34:15;;;;;;;3.22;1.98;;;;;;;;;;4972507;28;20033;-70
2023/08/08 13:36:41;;;;;;;5.32;2.30;;;;;;;;;;4972878;28;20043;-68
2023/08/08 13:39:11;;;;;;;3.90;2.05;;;;;;;;;;4972555;28;20395;-68
2023/08/08 13:41:38;;;;;;;3.72;2.42;;;;;;;;;;4971542;28;20502;-70
2023/08/08 13:44:04;;;;;;;3.10;2.42;;;;;;;;;;4972340;28;20482;-70
2023/08/08 13:46:30;;;;;;;2.55;2.35;;;;;;;;;;4988829;28;20041;-68
2023/08/08 13:48:57;;;;;;;5.05;2.70;;;;;;;;;;4976249;28;20046;-69
2023/08/08 13:51:23;;;;;;;6.97;2.40;;;;;;;;;;4990915;28;20060;-69
2023/08/08 13:53:49;;;;;;;2.72;2.53;;;;;;;;;;4975408;28;20029;-70
2023/08/08 13:56:16;;;;;;;3.25;2.53;;;;;;;;;;4970645;28;20503;-69
2023/08/08 13:58:42;;;;;;;3.25;2.83;;;;;;;;;;4976069;28;20364;-70
2023/08/08 14:01:08;;;;;;;4.60;2.70;;;;;;;;;;4976259;28;20019;-69
2023/08/08 14:03:35;;;;;;;3.72;2.78;;;;;;;;;;4975973;28;20495;-71
2023/08/08 14:06:01;;;;;;;2.78;2.58;;;;;;;;;;4968839;28;20408;-70
2023/08/08 14:08:27;;;;;;;3.08;2.88;;;;;;;;;;4956778;29;20019;-69
2023/08/08 14:10:54;;;;;;;4.25;2.75;;;;;;;;;;4956144;28;20105;-69
2023/08/08 14:13:21;;;;;;;2.97;2.67;;;;;;;;;;4972744;28;20049;-69
2023/08/08 14:15:48;;;;;;;3.60;2.92;;;;;;;;;;4975745;28;20033;-69
2023/08/08 14:18:14;;;;;;;3.13;2.80;;;;;;;;;;4975485;28;20031;-70
2023/08/08 14:20:41;;;;;;;3.40;3.10;;;;;;;;;;4975550;28;20035;-69
2023/08/08 14:23:07;;;;;;;3.08;2.75;;;;;;;;;;4975963;28;20014;-70
2023/08/08 14:25:34;;;;;;;3.08;2.78;;;;;;;;;;4975247;28;20037;-70
2023/08/08 14:28:01;;;;;;;3.40;3.00;;;;;;;;;;4968426;28;20023;-68
2023/08/08 14:30:28;;;;;;;3.58;3.00;;;;;;;;;;4968386;28;20020;-68
2023/08/08 14:32:54;;;;;;;2.88;2.50;;;;;;;;;;4958574;28;20019;-70
2023/08/08 14:35:21;;;;;;;2.85;2.55;;;;;;;;;;4957060;28;20015;-71
2023/08/08 14:37:47;;;;;;;4.18;2.45;;;;;;;;;;4955715;28;20030;-69
2023/08/08 14:40:13;;;;;;;5.28;2.47;;;;;;;;;;4955714;29;20050;-70
2023/08/08 14:42:40;;;;;;;3.40;2.90;;;;;;;;;;4963184;28;20011;-69